createdAt,value
2023-02-12T00:01:09.947Z,69.34
2023-02-12T00:03:38.171Z,69.66
2023-02-12T00:06:05.480Z,69.73
2023-02-12T00:08:32.199Z,69.68
2023-02-12T00:10:58.893Z,69.74
2023-02-12T00:13:26.062Z,69.69
2023-02-12T00:15:53.041Z,69.75
2023-02-12T00:18:19.903Z,69.70
2023-02-12T00:20:46.621Z,69.75
2023-02-12T00:23:13.461Z,69.92
2023-02-12T00:25:43.266Z,69.94
2023-02-12T00:28:10.240Z,69.93
2023-02-12T00:30:37.176Z,69.93
2023-02-12T00:33:03.977Z,69.99
2023-02-12T00:35:30.755Z,69.69
2023-02-12T00:37:57.649Z,70.01
2023-02-12T00:40:24.492Z,69.97
2023-02-12T00:42:51.189Z,70.08
2023-02-12T00:45:18.171Z,70.03
2023-02-12T00:47:44.961Z,69.91
2023-02-12T00:50:12.116Z,70.06
2023-02-12T00:52:38.837Z,70.15
2023-02-12T00:55:05.927Z,70.19
2023-02-12T00:57:33.554Z,70.21
2023-02-12T01:00:00.330Z,70.22
2023-02-12T01:02:27.104Z,70.25
2023-02-12T01:04:53.876Z,70.31
2023-02-12T01:07:20.598Z,70.32
2023-02-12T01:09:47.502Z,70.39
2023-02-12T01:12:14.407Z,70.22
2023-02-12T01:14:41.137Z,70.31
2023-02-12T01:17:09.791Z,70.41
2023-02-12T01:19:36.523Z,70.41
2023-02-12T01:22:03.390Z,70.46
2023-02-12T01:24:30.165Z,70.36
2023-02-12T01:26:56.899Z,70.53
2023-02-12T01:29:23.624Z,70.51
2023-02-12T01:31:50.494Z,70.46
2023-02-12T01:34:17.355Z,70.50
2023-02-12T01:36:44.145Z,70.71
2023-02-12T01:39:11.835Z,70.68
2023-02-12T01:41:43.102Z,70.68
2023-02-12T01:44:19.389Z,70.85
2023-02-12T01:46:48.119Z,70.97
2023-02-12T01:49:21.647Z,70.95
2023-02-12T01:51:52.893Z,71.11
2023-02-12T01:54:27.452Z,71.19
2023-02-12T01:56:54.932Z,71.15
2023-02-12T01:59:24.561Z,71.42
2023-02-12T02:01:51.805Z,71.28
2023-02-12T02:04:23.653Z,71.59
2023-02-12T02:07:03.208Z,71.43
2023-02-12T02:09:33.674Z,71.72
2023-02-12T02:12:20.378Z,71.69
2023-02-12T02:14:48.525Z,71.91
2023-02-12T02:17:51.941Z,71.92
2023-02-12T02:20:49.645Z,71.96
2023-02-12T02:23:22.346Z,71.97
2023-02-12T02:25:58.428Z,71.86
2023-02-12T02:28:43.571Z,71.89
2023-02-12T02:31:19.191Z,72.00
2023-02-12T02:33:52.081Z,71.95
2023-02-12T02:36:58.029Z,71.94
2023-02-12T02:39:53.898Z,71.70
2023-02-12T02:42:27.968Z,71.83
2023-02-12T02:45:13.686Z,71.76
2023-02-12T02:47:45.980Z,71.72
2023-02-12T02:50:18.299Z,71.85
2023-02-12T02:53:06.423Z,72.06
2023-02-12T02:55:41.128Z,71.93
2023-02-12T02:58:14.653Z,71.99
2023-02-12T03:00:49.342Z,72.12
2023-02-12T03:03:25.555Z,72.08
2023-02-12T03:05:59.331Z,72.06
2023-02-12T03:08:34.280Z,72.11
2023-02-12T03:11:31.592Z,72.29
2023-02-12T03:14:13.207Z,72.10
2023-02-12T03:16:48.599Z,72.31
2023-02-12T03:19:23.056Z,72.27
2023-02-12T03:22:04.386Z,72.28
2023-02-12T03:24:36.864Z,72.24
2023-02-12T03:27:10.045Z,72.37
2023-02-12T03:29:37.345Z,72.32
2023-02-12T03:32:15.921Z,72.38
2023-02-12T03:34:51.808Z,72.33
2023-02-12T03:37:30.729Z,72.27
2023-02-12T03:40:28.012Z,72.32
2023-02-12T03:43:00.772Z,72.28
2023-02-12T03:45:53.016Z,72.22
2023-02-12T03:48:25.996Z,72.48
2023-02-12T03:51:00.250Z,72.30
2023-02-12T03:53:28.844Z,72.39
2023-02-12T03:56:12.852Z,72.43
2023-02-12T03:58:41.656Z,72.42
2023-02-12T04:01:08.979Z,72.41
2023-02-12T04:03:36.334Z,72.37
2023-02-12T04:06:03.143Z,72.47
2023-02-12T04:08:31.092Z,72.60
2023-02-12T04:11:44.512Z,72.56
2023-02-12T04:14:50.465Z,72.42
2023-02-12T04:17:32.800Z,72.42
2023-02-12T04:20:05.674Z,72.44
2023-02-12T04:23:11.787Z,72.45
2023-02-12T04:26:32.808Z,72.60
2023-02-12T04:29:14.335Z,72.63
2023-02-12T04:32:00.007Z,72.78
2023-02-12T04:34:39.793Z,72.68
2023-02-12T04:37:45.592Z,72.84
2023-02-12T04:40:14.920Z,72.75
2023-02-12T04:42:47.335Z,73.02
2023-02-12T04:45:15.342Z,72.96
2023-02-12T04:47:42.120Z,73.05
2023-02-12T04:50:09.397Z,73.17
2023-02-12T04:52:36.141Z,73.20
2023-02-12T04:55:02.861Z,73.27
2023-02-12T04:57:29.715Z,73.36
2023-02-12T04:59:56.635Z,73.51
2023-02-12T05:02:23.436Z,73.52
2023-02-12T05:04:51.050Z,73.49
2023-02-12T05:07:17.805Z,73.83
2023-02-12T05:09:44.517Z,73.75
2023-02-12T05:12:11.298Z,73.92
2023-02-12T05:14:38.111Z,74.11
2023-02-12T05:17:04.832Z,74.06
2023-02-12T05:19:31.595Z,74.14
2023-02-12T05:21:58.391Z,74.25
2023-02-12T05:24:25.998Z,74.28
2023-02-12T05:26:53.102Z,74.35
2023-02-12T05:29:20.037Z,74.64
2023-02-12T05:31:46.853Z,74.52
2023-02-12T05:34:14.123Z,74.69
2023-02-12T05:36:41.263Z,74.74
2023-02-12T05:39:07.980Z,74.88
2023-02-12T05:41:37.825Z,75.01
2023-02-12T05:44:06.685Z,75.02
2023-02-12T05:46:34.008Z,75.06
2023-02-12T05:49:00.803Z,75.26
2023-02-12T05:51:27.968Z,75.47
2023-02-12T05:54:03.821Z,75.56
2023-02-12T05:56:43.764Z,75.38
2023-02-12T05:59:17.094Z,75.57
2023-02-12T06:01:45.705Z,75.67
2023-02-12T06:04:24.280Z,75.66
2023-02-12T06:06:52.509Z,75.81
2023-02-12T06:09:19.727Z,75.89
2023-02-12T06:11:46.515Z,75.97
2023-02-12T06:14:16.774Z,75.90
2023-02-12T06:16:51.506Z,75.96
2023-02-12T06:19:19.336Z,76.05
2023-02-12T06:21:46.468Z,76.13
2023-02-12T06:24:15.115Z,76.20
2023-02-12T06:26:42.664Z,76.49
2023-02-12T06:29:10.532Z,76.60
2023-02-12T06:31:38.142Z,76.57
2023-02-12T06:34:09.941Z,76.66
2023-02-12T06:36:38.413Z,76.67
2023-02-12T06:39:05.697Z,76.71
2023-02-12T06:41:32.559Z,76.83
2023-02-12T06:43:59.455Z,76.84
2023-02-12T06:46:26.255Z,76.92
2023-02-12T06:48:57.842Z,77.04
2023-02-12T06:51:25.397Z,77.18
2023-02-12T06:53:53.492Z,76.94
2023-02-12T06:56:21.755Z,77.14
2023-02-12T06:58:58.037Z,77.22
2023-02-12T07:01:27.899Z,77.27
2023-02-12T07:03:57.497Z,77.11
2023-02-12T07:06:25.413Z,77.32
2023-02-12T07:08:52.738Z,77.32
2023-02-12T07:11:24.297Z,77.40
2023-02-12T07:13:51.138Z,77.42
2023-02-12T07:16:18.339Z,77.50
2023-02-12T07:18:46.122Z,77.18
2023-02-12T07:21:15.013Z,77.36
2023-02-12T07:23:42.536Z,77.56
2023-02-12T07:26:12.569Z,77.42
2023-02-12T07:28:40.618Z,77.64
2023-02-12T07:31:10.120Z,77.64
2023-02-12T07:33:38.310Z,77.64
2023-02-12T07:36:07.670Z,77.75
2023-02-12T07:38:39.578Z,77.95
2023-02-12T07:41:10.507Z,77.72
2023-02-12T07:43:37.926Z,77.85
2023-02-12T07:46:13.740Z,77.92
2023-02-12T07:48:40.621Z,77.93
2023-02-12T07:51:09.637Z,78.06
2023-02-12T07:53:36.826Z,77.99
2023-02-12T07:56:18.351Z,78.18
2023-02-12T07:58:46.909Z,78.09
2023-02-12T08:01:13.841Z,78.00
2023-02-12T08:03:41.018Z,78.22
2023-02-12T08:06:14.583Z,77.94
2023-02-12T08:08:41.491Z,78.26
2023-02-12T08:11:10.910Z,78.43
2023-02-12T08:13:38.762Z,78.25
2023-02-12T08:16:08.895Z,78.29
2023-02-12T08:18:36.118Z,78.37
2023-02-12T08:21:18.262Z,78.53
2023-02-12T08:23:45.563Z,78.41
2023-02-12T08:26:18.844Z,78.41
2023-02-12T08:28:51.840Z,78.52
2023-02-12T08:31:21.477Z,78.46
2023-02-12T08:33:51.799Z,78.54
2023-02-12T08:36:24.324Z,78.55
2023-02-12T08:38:51.756Z,78.48
2023-02-12T08:41:26.641Z,78.56
2023-02-12T08:43:55.738Z,78.48
2023-02-12T08:46:25.758Z,78.65
2023-02-12T08:48:57.664Z,78.49
2023-02-12T08:51:27.358Z,78.45
2023-02-12T08:53:59.590Z,78.39
2023-02-12T08:56:27.453Z,78.60
2023-02-12T08:58:54.166Z,78.66
2023-02-12T09:01:23.401Z,78.43
2023-02-12T09:03:51.391Z,78.55
2023-02-12T09:06:20.361Z,78.62
2023-02-12T09:08:47.737Z,78.46
2023-02-12T09:11:17.312Z,78.49
2023-02-12T09:13:45.829Z,78.54
2023-02-12T09:16:13.755Z,78.55
2023-02-12T09:18:40.865Z,78.56
2023-02-12T09:21:13.878Z,78.50
2023-02-12T09:23:41.133Z,78.33
2023-02-12T09:26:10.603Z,78.61
2023-02-12T09:28:38.868Z,78.40
2023-02-12T09:31:11.874Z,78.33
2023-02-12T09:33:39.026Z,78.43
2023-02-12T09:36:08.738Z,78.43
2023-02-12T09:38:36.160Z,78.34
2023-02-12T09:41:16.167Z,78.30
2023-02-12T09:44:09.300Z,78.18
2023-02-12T09:47:06.284Z,78.17
2023-02-12T09:49:54.487Z,78.14
2023-02-12T09:52:26.882Z,78.04
2023-02-12T09:54:53.637Z,78.04
2023-02-12T09:57:31.784Z,77.96
2023-02-12T10:00:03.544Z,77.85
2023-02-12T10:02:30.679Z,77.99
2023-02-12T10:05:02.038Z,77.77
2023-02-12T10:07:37.866Z,77.73
2023-02-12T10:10:29.514Z,77.65
2023-02-12T10:13:12.212Z,77.51
2023-02-12T10:16:01.816Z,77.32
2023-02-12T10:18:34.206Z,77.46
2023-02-12T10:21:16.126Z,77.17
2023-02-12T10:24:12.580Z,76.92
2023-02-12T10:26:44.321Z,76.82
2023-02-12T10:29:24.409Z,76.63
2023-02-12T10:34:41.693Z,76.17
2023-02-12T10:37:37.912Z,75.88
2023-02-12T10:40:32.788Z,75.78
2023-02-12T10:43:01.696Z,75.51
2023-02-12T10:45:39.874Z,75.53
2023-02-12T10:48:09.393Z,75.12
2023-02-12T10:50:42.829Z,74.81
2023-02-12T10:53:22.057Z,74.64
2023-02-12T10:55:48.882Z,74.45
2023-02-12T10:58:22.106Z,74.22
2023-02-12T11:01:00.336Z,73.85
2023-02-12T11:03:37.648Z,73.75
2023-02-12T11:06:17.374Z,73.79
2023-02-12T11:08:44.918Z,73.46
2023-02-12T11:11:20.430Z,73.21
2023-02-12T11:13:54.856Z,73.18
2023-02-12T11:16:33.708Z,72.96
2023-02-12T11:19:18.169Z,72.99
2023-02-12T11:21:45.067Z,72.80
2023-02-12T11:24:31.943Z,72.53
2023-02-12T11:27:12.019Z,72.51
2023-02-12T11:29:39.369Z,72.33
2023-02-12T11:32:09.127Z,72.30
2023-02-12T11:34:36.439Z,71.91
2023-02-12T11:37:05.199Z,72.18
2023-02-12T11:39:38.203Z,71.85
2023-02-12T11:42:16.544Z,72.01
2023-02-12T11:44:48.794Z,71.77
2023-02-12T11:47:24.022Z,71.84
2023-02-12T11:50:02.870Z,71.96
2023-02-12T11:52:35.570Z,71.95
2023-02-12T11:55:18.848Z,71.86
2023-02-12T11:57:51.694Z,71.66
2023-02-12T12:00:21.373Z,71.77
2023-02-12T12:03:12.938Z,71.75
2023-02-12T12:05:47.238Z,71.95
2023-02-12T12:08:33.594Z,71.73
2023-02-12T12:11:11.047Z,71.82
2023-02-12T12:13:45.942Z,71.84
2023-02-12T12:16:46.345Z,71.67
2023-02-12T12:19:38.918Z,71.64
2023-02-12T12:22:17.713Z,71.31
2023-02-12T12:24:52.329Z,71.33
2023-02-12T12:27:40.297Z,71.54
2023-02-12T12:30:17.805Z,71.60
2023-02-12T12:32:47.662Z,71.41
2023-02-12T12:35:19.400Z,71.27
2023-02-12T12:37:58.522Z,71.56
2023-02-12T12:40:34.055Z,71.55
2023-02-12T12:43:14.507Z,71.38
2023-02-12T12:45:59.024Z,71.57
2023-02-12T12:48:46.245Z,71.42
2023-02-12T12:51:18.666Z,71.58
2023-02-12T12:54:08.045Z,71.69
2023-02-12T12:56:56.348Z,71.64
2023-02-12T12:59:43.971Z,71.83
2023-02-12T13:02:41.600Z,72.04
2023-02-12T13:05:23.949Z,72.13
2023-02-12T13:08:14.938Z,71.99
2023-02-12T13:10:50.906Z,71.87
2023-02-12T13:13:26.428Z,71.33
2023-02-12T13:16:25.219Z,71.05
2023-02-12T13:18:54.748Z,70.85
2023-02-12T13:21:46.490Z,70.34
2023-02-12T13:24:16.092Z,69.96
2023-02-12T13:26:47.392Z,69.84
2023-02-12T13:29:21.092Z,69.68
2023-02-12T13:31:54.528Z,69.65
2023-02-12T13:34:23.128Z,69.57
2023-02-12T13:36:50.433Z,69.08
2023-02-12T13:39:43.086Z,69.07
2023-02-12T13:42:27.864Z,69.14
2023-02-12T13:45:01.939Z,69.49
2023-02-12T13:47:45.103Z,69.71
2023-02-12T13:50:20.840Z,69.91
2023-02-12T13:53:01.699Z,69.88
2023-02-12T13:55:41.730Z,69.54
2023-02-12T13:58:46.891Z,69.16
2023-02-12T14:01:38.644Z,68.83
2023-02-12T14:04:14.831Z,68.92
2023-02-12T14:06:59.797Z,68.76
2023-02-12T14:09:38.414Z,69.09
2023-02-12T14:12:11.962Z,69.17
2023-02-12T14:14:48.714Z,68.77
2023-02-12T14:17:33.397Z,68.82
2023-02-12T14:20:28.487Z,68.56
2023-02-12T14:23:02.109Z,68.79
2023-02-12T14:25:42.256Z,68.68
2023-02-12T14:28:25.648Z,68.67
2023-02-12T14:31:20.934Z,67.94
2023-02-12T14:33:50.731Z,68.04
2023-02-12T14:36:32.717Z,68.34
2023-02-12T14:39:19.651Z,68.66
2023-02-12T14:42:15.889Z,68.68
2023-02-12T14:45:05.165Z,68.81
2023-02-12T14:47:31.851Z,68.81
2023-02-12T14:50:17.118Z,69.29
2023-02-12T14:52:51.986Z,69.64
2023-02-12T14:55:30.363Z,69.54
2023-02-12T14:58:20.213Z,69.64
2023-02-12T15:00:49.753Z,69.60
2023-02-12T15:03:30.726Z,69.58
2023-02-12T15:06:21.238Z,69.59
2023-02-12T15:09:00.337Z,69.38
2023-02-12T15:11:33.081Z,69.29
2023-02-12T15:14:35.326Z,69.45
2023-02-12T15:17:12.105Z,69.51
2023-02-12T15:19:56.185Z,69.49
2023-02-12T15:22:29.725Z,69.36
2023-02-12T15:25:29.345Z,69.26
2023-02-12T15:27:59.603Z,69.34
2023-02-12T15:30:30.540Z,69.54
2023-02-12T15:32:59.632Z,69.58
2023-02-12T15:35:32.624Z,69.45
2023-02-12T15:38:01.263Z,69.66
2023-02-12T15:40:30.636Z,69.75
2023-02-12T15:43:00.008Z,69.68
2023-02-12T15:45:29.146Z,69.91
2023-02-12T15:48:02.033Z,69.78
2023-02-12T15:50:30.801Z,69.97
2023-02-12T15:52:57.945Z,70.06
2023-02-12T15:55:27.713Z,69.95
2023-02-12T15:57:58.406Z,70.19
2023-02-12T16:00:45.098Z,70.24
2023-02-12T16:03:26.866Z,70.21
2023-02-12T16:05:58.223Z,70.05
2023-02-12T16:08:25.494Z,69.98
2023-02-12T16:10:55.922Z,69.99
2023-02-12T16:13:34.618Z,69.95
2023-02-12T16:16:13.537Z,70.03
2023-02-12T16:19:07.216Z,69.98
2023-02-12T16:21:38.254Z,69.98
2023-02-12T16:24:06.252Z,69.95
2023-02-12T16:26:33.079Z,69.96
2023-02-12T16:28:59.851Z,69.77
2023-02-12T16:31:27.874Z,69.90
2023-02-12T16:33:58.650Z,69.74
2023-02-12T16:36:25.409Z,70.03
2023-02-12T16:38:54.654Z,70.04
2023-02-12T16:41:27.183Z,69.96
2023-02-12T16:44:00.022Z,70.06
2023-02-12T16:46:32.361Z,69.99
2023-02-12T16:49:00.865Z,69.91
2023-02-12T16:51:29.600Z,70.08
2023-02-12T16:54:01.393Z,70.21
2023-02-12T16:56:38.839Z,70.39
2023-02-12T16:59:05.847Z,70.38
2023-02-12T17:01:35.668Z,70.35
2023-02-12T17:04:08.897Z,70.39
2023-02-12T17:06:35.628Z,70.34
2023-02-12T17:09:02.437Z,70.42
2023-02-12T17:11:29.641Z,70.71
2023-02-12T17:13:56.813Z,70.55
2023-02-12T17:16:32.313Z,70.78
2023-02-12T17:19:00.278Z,70.91
2023-02-12T17:21:37.910Z,70.93
2023-02-12T17:24:26.366Z,71.15
2023-02-12T17:26:54.074Z,71.06
2023-02-12T17:29:22.971Z,71.16
2023-02-12T17:31:53.775Z,71.31
2023-02-12T17:34:21.289Z,71.21
2023-02-12T17:36:48.705Z,71.52
2023-02-12T17:39:16.688Z,71.70
2023-02-12T17:41:44.331Z,71.61
2023-02-12T17:44:13.398Z,71.96
2023-02-12T17:46:40.148Z,72.15
2023-02-12T17:49:07.115Z,72.00
2023-02-12T17:51:33.859Z,71.96
2023-02-12T17:54:00.649Z,72.35
2023-02-12T17:56:27.813Z,72.41
2023-02-12T17:58:54.606Z,72.66
2023-02-12T18:01:23.182Z,72.68
2023-02-12T18:03:53.714Z,72.94
2023-02-12T18:06:29.600Z,72.96
2023-02-12T18:08:58.036Z,73.10
2023-02-12T18:11:25.702Z,73.34
2023-02-12T18:13:53.986Z,73.68
2023-02-12T18:16:20.894Z,73.55
2023-02-12T18:18:48.266Z,73.65
2023-02-12T18:21:16.261Z,73.75
2023-02-12T18:23:43.870Z,73.71
2023-02-12T18:26:18.201Z,73.97
2023-02-12T18:28:45.066Z,73.93
2023-02-12T18:31:12.680Z,73.83
2023-02-12T18:33:39.726Z,74.16
2023-02-12T18:36:09.398Z,73.93
2023-02-12T18:38:38.078Z,74.18
2023-02-12T18:41:09.709Z,74.39
2023-02-12T18:43:37.170Z,74.55
2023-02-12T18:46:12.462Z,74.55
2023-02-12T18:48:39.230Z,74.51
2023-02-12T18:51:08.337Z,74.80
2023-02-12T18:53:36.369Z,74.93
2023-02-12T18:56:08.172Z,74.86
2023-02-12T18:58:35.985Z,74.86
2023-02-12T19:01:16.302Z,74.84
2023-02-12T19:03:44.362Z,74.96
2023-02-12T19:06:12.003Z,74.87
2023-02-12T19:08:38.884Z,74.96
2023-02-12T19:11:07.242Z,75.18
2023-02-12T19:13:34.099Z,75.28
2023-02-12T19:16:06.780Z,75.35
2023-02-12T19:18:33.558Z,75.63
2023-02-12T19:21:00.902Z,75.42
2023-02-12T19:23:27.616Z,76.24
2023-02-12T19:25:54.407Z,75.56
2023-02-12T19:28:21.154Z,75.85
2023-02-12T19:30:47.986Z,75.96
2023-02-12T19:33:15.345Z,75.89
2023-02-12T19:35:43.250Z,76.02
2023-02-12T19:38:09.965Z,76.06
2023-02-12T19:40:36.712Z,76.21
2023-02-12T19:43:03.390Z,76.20
2023-02-12T19:45:32.564Z,76.28
2023-02-12T19:47:59.348Z,76.31
2023-02-12T19:50:26.028Z,76.34
2023-02-12T19:52:52.695Z,76.56
2023-02-12T19:55:19.511Z,76.42
2023-02-12T19:57:48.041Z,76.47
2023-02-12T20:00:15.160Z,76.56
2023-02-12T20:02:43.937Z,76.47
2023-02-12T20:05:10.898Z,76.48
2023-02-12T20:07:37.790Z,76.46
2023-02-12T20:10:04.790Z,76.26
2023-02-12T20:12:31.529Z,76.28
2023-02-12T20:15:00.990Z,76.36
2023-02-12T20:17:27.716Z,76.57
2023-02-12T20:19:54.506Z,76.46
2023-02-12T20:22:22.605Z,76.28
2023-02-12T20:24:51.108Z,76.18
2023-02-12T20:27:17.782Z,76.41
2023-02-12T20:29:44.530Z,76.41
2023-02-12T20:32:12.060Z,76.02
2023-02-12T20:34:50.183Z,76.29
2023-02-12T20:37:18.958Z,75.97
2023-02-12T20:39:45.718Z,76.19
2023-02-12T20:42:12.539Z,76.38
2023-02-12T20:44:39.302Z,76.10
2023-02-12T20:47:05.986Z,76.21
2023-02-12T20:49:32.743Z,76.27
2023-02-12T20:51:59.636Z,76.21
2023-02-12T20:54:26.386Z,76.13
2023-02-12T20:56:55.482Z,76.22
2023-02-12T20:59:22.259Z,76.30
2023-02-12T21:01:49.346Z,76.27
2023-02-12T21:04:18.084Z,76.30
2023-02-12T21:06:45.973Z,76.46
2023-02-12T21:09:14.401Z,76.53
2023-02-12T21:11:43.043Z,76.42
2023-02-12T21:14:26.012Z,76.71
2023-02-12T21:16:55.102Z,76.60
2023-02-12T21:19:22.637Z,76.90
2023-02-12T21:21:49.604Z,76.96
2023-02-12T21:24:21.849Z,77.10
2023-02-12T21:26:48.580Z,77.59
2023-02-12T21:29:15.580Z,77.29
2023-02-12T21:31:47.458Z,77.46
2023-02-12T21:34:18.359Z,77.90
2023-02-12T21:36:47.129Z,77.92
2023-02-12T21:39:17.030Z,78.36
2023-02-12T21:41:44.291Z,78.70
2023-02-12T21:44:14.835Z,78.72
2023-02-12T21:46:41.859Z,79.08
2023-02-12T21:49:12.155Z,79.19
2023-02-12T21:51:41.640Z,79.55
2023-02-12T21:54:12.555Z,79.80
2023-02-12T21:56:41.321Z,80.02
2023-02-12T21:59:09.458Z,80.38
2023-02-12T22:01:39.052Z,80.56
2023-02-12T22:04:06.900Z,80.42
2023-02-12T22:06:37.480Z,80.71
2023-02-12T22:09:09.255Z,80.96
2023-02-12T22:11:37.903Z,81.05
2023-02-12T22:14:05.476Z,81.47
2023-02-12T22:16:32.532Z,81.46
2023-02-12T22:19:01.905Z,81.63
2023-02-12T22:21:31.582Z,81.84
2023-02-12T22:24:01.836Z,82.04
2023-02-12T22:26:30.352Z,82.13
2023-02-12T22:28:59.792Z,82.32
2023-02-12T22:31:31.989Z,82.39
2023-02-12T22:34:00.532Z,82.74
2023-02-12T22:36:28.213Z,82.79
2023-02-12T22:38:57.474Z,82.51
2023-02-12T22:41:24.283Z,82.76
2023-02-12T22:43:51.758Z,82.97
2023-02-12T22:46:19.606Z,83.08
2023-02-12T22:48:46.931Z,83.37
2023-02-12T22:51:25.894Z,83.29
2023-02-12T22:53:53.857Z,83.42
2023-02-12T22:56:21.039Z,83.66
2023-02-12T22:58:48.068Z,83.68
2023-02-12T23:01:18.044Z,83.65
2023-02-12T23:03:45.921Z,83.83
2023-02-12T23:06:15.784Z,83.96
2023-02-12T23:08:43.893Z,84.12
2023-02-12T23:11:11.979Z,84.10
2023-02-12T23:13:39.938Z,83.96
2023-02-12T23:16:07.050Z,83.97
2023-02-12T23:18:34.250Z,84.09
2023-02-12T23:21:01.652Z,84.30
2023-02-12T23:23:28.677Z,84.40
2023-02-12T23:25:55.768Z,84.41
2023-02-12T23:28:23.202Z,84.07
2023-02-12T23:30:51.511Z,84.21
2023-02-12T23:33:19.831Z,84.09
2023-02-12T23:35:47.961Z,84.12
2023-02-12T23:38:15.626Z,84.15
2023-02-12T23:40:43.044Z,84.20
2023-02-12T23:43:09.883Z,84.32
2023-02-12T23:45:36.814Z,84.17
2023-02-12T23:48:03.797Z,84.31
2023-02-12T23:50:30.554Z,84.06
2023-02-12T23:52:58.911Z,84.08
2023-02-12T23:55:25.726Z,83.92
2023-02-12T23:57:52.555Z,83.97
